Huntsville's Hourly Summary for Tuesday, July 10, 2018
Hour Temp
(f)
RH
(%)
Solar Rad.
(MJ/m2)
Rainfall
(in)
Wind
(mph)
7/10/2018 12:00 AM 70 88 0 0 0.01
7/10/2018 1:00 AM 70 88 0 0 0.01
7/10/2018 2:00 AM 69 88 0 0 0.02
7/10/2018 3:00 AM 69 89 0 0 0
7/10/2018 4:00 AM 69 90 0 0 0
7/10/2018 5:00 AM 68 91 0 0 0.01
7/10/2018 6:00 AM 68 91 0.02 0 0
7/10/2018 7:00 AM 69 90 0.24 0 0.05
7/10/2018 8:00 AM 74 81 1.05 0 1.63
7/10/2018 9:00 AM 77 72 1.65 0 2.92
7/10/2018 10:00 AM 80 63 2.18 0 2.81
7/10/2018 11:00 AM 82 57 2.42 0 2.38
7/10/2018 12:00 PM 84 53 2.81 0 2.13
7/10/2018 1:00 PM 85 50 2.85 0 2.27
7/10/2018 2:00 PM 85 51 2.41 0 2.12
7/10/2018 3:00 PM 86 47 2.08 0 2.05
7/10/2018 4:00 PM 87 42 2.2 0 2.68
7/10/2018 5:00 PM 88 38 1.59 0 2.32
7/10/2018 6:00 PM 87 46 0.94 0 2.63
7/10/2018 7:00 PM 86 49 0.31 0 0.59
7/10/2018 8:00 PM 80 64 0.01 0 0
7/10/2018 9:00 PM 79 72 0 0 0.02
7/10/2018 10:00 PM 78 73 0 0 0.06
7/10/2018 11:00 PM 78 70 0 0 0.91
Data Summary 77 68 22.76 0.00 1.15